Time;durP1;ratioP1;P1;durP2;ratioP2;P2;SDS_P1;SDS_P2;PMS_P1;PMS_P2;Temp;Humidity;BMP_temperature;BMP_pressure;BME280_temperature;BME280_humidity;BME280_pressure;Samples;Min_cycle;Max_cycle;Signal;HPM_P1;HPM_P2
2023/06/28 00:01:59;;;;;;;22.63;21.17;;;;;;;;;;5077775;28;20506;-78
2023/06/28 00:04:26;;;;;;;22.50;21.20;;;;;;;;;;5078236;28;20461;-78
2023/06/28 00:06:54;;;;;;;22.73;21.43;;;;;;;;;;5078539;28;20435;-78
2023/06/28 00:09:21;;;;;;;23.20;21.80;;;;;;;;;;5079275;28;20896;-78
2023/06/28 00:11:48;;;;;;;21.87;20.53;;;;;;;;;;5077777;28;20507;-77
2023/06/28 00:14:15;;;;;;;23.20;21.60;;;;;;;;;;5078434;28;20450;-77
2023/06/28 00:16:42;;;;;;;22.47;21.00;;;;;;;;;;5078482;28;20994;-77
2023/06/28 00:19:11;;;;;;;22.50;21.00;;;;;;;;;;5081706;28;20484;-78
2023/06/28 00:21:38;;;;;;;22.13;20.93;;;;;;;;;;5078646;28;20798;-77
2023/06/28 00:24:05;;;;;;;22.77;21.33;;;;;;;;;;5078806;28;20457;-78
2023/06/28 00:26:32;;;;;;;21.53;20.07;;;;;;;;;;5077370;28;20412;-77
2023/06/28 00:29:01;;;;;;;21.90;20.70;;;;;;;;;;5079884;28;20473;-77
2023/06/28 00:31:28;;;;;;;21.97;20.77;;;;;;;;;;5080868;28;20435;-77
2023/06/28 00:33:55;;;;;;;23.70;22.10;;;;;;;;;;5083313;28;20488;-78
2023/06/28 00:36:23;;;;;;;23.63;22.03;;;;;;;;;;5083225;28;20420;-77
2023/06/28 00:38:50;;;;;;;23.90;22.40;;;;;;;;;;5083668;28;20920;-77
2023/06/28 00:41:17;;;;;;;22.60;21.23;;;;;;;;;;5084106;28;20589;-78
2023/06/28 00:43:45;;;;;;;21.57;20.17;;;;;;;;;;5083745;28;20479;-77
2023/06/28 00:46:12;;;;;;;22.40;21.00;;;;;;;;;;5080910;28;20431;-78
2023/06/28 00:48:40;;;;;;;21.90;20.70;;;;;;;;;;5080217;28;20415;-77
2023/06/28 00:51:07;;;;;;;23.73;22.00;;;;;;;;;;5079548;28;20526;-77
2023/06/28 00:53:35;;;;;;;22.73;21.37;;;;;;;;;;5079492;28;20844;-78
2023/06/28 00:56:02;;;;;;;23.40;21.90;;;;;;;;;;5079270;28;20492;-78
2023/06/28 00:58:29;;;;;;;23.30;21.90;;;;;;;;;;5079643;28;20445;-77
2023/06/28 01:00:56;;;;;;;22.93;21.60;;;;;;;;;;5078574;28;20506;-78
2023/06/28 01:03:24;;;;;;;22.37;21.27;;;;;;;;;;5078738;28;20488;-77
2023/06/28 01:05:51;;;;;;;22.97;21.50;;;;;;;;;;5077776;28;20806;-78
2023/06/28 01:08:19;;;;;;;22.97;21.37;;;;;;;;;;5078381;28;21241;-78
2023/06/28 01:10:47;;;;;;;23.73;21.97;;;;;;;;;;5078670;28;20541;-77
2023/06/28 01:13:15;;;;;;;23.33;21.83;;;;;;;;;;5079453;28;20859;-77
2023/06/28 01:15:42;;;;;;;22.77;21.37;;;;;;;;;;5079028;28;20960;-78
2023/06/28 01:18:09;;;;;;;22.83;21.60;;;;;;;;;;5078506;28;20422;-77
2023/06/28 01:20:36;;;;;;;22.40;21.00;;;;;;;;;;5078541;28;20463;-77
2023/06/28 01:23:05;;;;;;;21.70;20.40;;;;;;;;;;5078598;28;20526;-77
2023/06/28 01:25:32;;;;;;;22.40;21.10;;;;;;;;;;5078270;28;20445;-78
2023/06/28 01:27:59;;;;;;;22.30;21.00;;;;;;;;;;5078375;28;20431;-77
2023/06/28 01:30:26;;;;;;;22.47;21.03;;;;;;;;;;5077399;28;20493;-77
2023/06/28 01:32:53;;;;;;;22.27;20.83;;;;;;;;;;5078423;28;20499;-78
2023/06/28 01:35:20;;;;;;;22.17;20.87;;;;;;;;;;5078419;28;20431;-77
2023/06/28 01:37:49;;;;;;;22.17;20.67;;;;;;;;;;5078177;28;20454;-78
2023/06/28 01:40:19;;;;;;;21.33;19.93;;;;;;;;;;5078176;28;20703;-78
2023/06/28 01:42:46;;;;;;;22.53;21.27;;;;;;;;;;5078502;28;20439;-77
2023/06/28 01:45:13;;;;;;;23.33;21.80;;;;;;;;;;5077914;28;20834;-78
2023/06/28 01:47:41;;;;;;;22.70;21.40;;;;;;;;;;5076251;28;20452;-77
2023/06/28 01:50:08;;;;;;;22.90;21.30;;;;;;;;;;5077082;28;20495;-79
2023/06/28 01:52:35;;;;;;;22.17;20.80;;;;;;;;;;5076636;28;20485;-77
2023/06/28 01:55:02;;;;;;;22.57;21.17;;;;;;;;;;5077234;28;20428;-77
2023/06/28 01:57:31;;;;;;;22.70;21.30;;;;;;;;;;5078317;28;20587;-78
2023/06/28 01:59:58;;;;;;;23.17;21.30;;;;;;;;;;5076039;28;20463;-77
2023/06/28 02:02:25;;;;;;;22.73;21.37;;;;;;;;;;5076853;28;20441;-77
2023/06/28 02:04:52;;;;;;;22.77;21.23;;;;;;;;;;5076702;28;20445;-78
2023/06/28 02:07:19;;;;;;;24.13;22.13;;;;;;;;;;5080486;28;20427;-78
2023/06/28 02:09:46;;;;;;;24.00;22.37;;;;;;;;;;5076537;28;20420;-77
2023/06/28 02:12:13;;;;;;;23.17;21.43;;;;;;;;;;5075321;28;20526;-78
2023/06/28 02:14:41;;;;;;;23.00;21.67;;;;;;;;;;5076480;28;20448;-77
2023/06/28 02:17:13;;;;;;;22.33;20.93;;;;;;;;;;5074454;28;20485;-79
2023/06/28 02:19:40;;;;;;;22.27;20.80;;;;;;;;;;5075217;28;20437;-78
2023/06/28 02:22:07;;;;;;;20.83;19.73;;;;;;;;;;5074352;28;20428;-77
2023/06/28 02:24:34;;;;;;;22.50;20.70;;;;;;;;;;5076433;28;20431;-78
2023/06/28 02:27:01;;;;;;;21.77;20.43;;;;;;;;;;5075508;28;20510;-77
2023/06/28 02:29:28;;;;;;;23.00;21.40;;;;;;;;;;5075607;28;20476;-77
2023/06/28 02:31:57;;;;;;;21.57;20.47;;;;;;;;;;5074892;28;20860;-77
2023/06/28 02:34:24;;;;;;;21.90;20.70;;;;;;;;;;5078999;28;20431;-78
2023/06/28 02:36:51;;;;;;;22.03;20.63;;;;;;;;;;5076676;28;20538;-77
2023/06/28 02:39:18;;;;;;;22.93;21.53;;;;;;;;;;5076222;28;20434;-77
2023/06/28 02:41:45;;;;;;;21.80;20.43;;;;;;;;;;5075668;28;20803;-77
2023/06/28 02:44:12;;;;;;;21.40;20.10;;;;;;;;;;5075813;28;20480;-77
2023/06/28 02:46:39;;;;;;;21.40;19.83;;;;;;;;;;5075357;28;20481;-77
2023/06/28 02:49:08;;;;;;;22.00;20.33;;;;;;;;;;5074648;28;20444;-77
2023/06/28 02:51:35;;;;;;;21.90;20.50;;;;;;;;;;5073449;28;21018;-77
2023/06/28 02:54:02;;;;;;;23.07;21.40;;;;;;;;;;5073159;28;20437;-77
2023/06/28 02:56:29;;;;;;;21.53;20.23;;;;;;;;;;5071929;28;20964;-77
2023/06/28 02:58:57;;;;;;;21.97;20.57;;;;;;;;;;5073401;28;20443;-79
2023/06/28 03:01:25;;;;;;;22.23;20.77;;;;;;;;;;5072900;28;20511;-78
2023/06/28 03:03:52;;;;;;;20.77;19.67;;;;;;;;;;5074197;28;20428;-77
2023/06/28 03:06:21;;;;;;;21.00;20.00;;;;;;;;;;5073351;28;20504;-77
2023/06/28 03:08:48;;;;;;;21.00;19.90;;;;;;;;;;5073559;28;20505;-78
2023/06/28 03:11:14;;;;;;;22.20;20.90;;;;;;;;;;5073383;28;20445;-77
2023/06/28 03:13:42;;;;;;;22.10;20.70;;;;;;;;;;5072704;28;20444;-77
2023/06/28 03:16:09;;;;;;;22.60;20.83;;;;;;;;;;5072672;28;20465;-78
2023/06/28 03:18:36;;;;;;;23.73;21.97;;;;;;;;;;5072793;28;20465;-77
2023/06/28 03:21:03;;;;;;;22.00;20.60;;;;;;;;;;5073192;28;20752;-77
2023/06/28 03:23:32;;;;;;;21.30;20.20;;;;;;;;;;5073499;28;20432;-77
2023/06/28 03:25:59;;;;;;;21.20;19.87;;;;;;;;;;5072880;28;20422;-77
2023/06/28 03:28:26;;;;;;;20.93;19.80;;;;;;;;;;5073552;28;20452;-78
2023/06/28 03:30:53;;;;;;;21.80;20.40;;;;;;;;;;5073346;28;20458;-77
2023/06/28 03:33:20;;;;;;;22.33;21.03;;;;;;;;;;5072382;28;20801;-75
2023/06/28 03:35:47;;;;;;;22.00;20.50;;;;;;;;;;5071689;28;20430;-75
2023/06/28 03:38:14;;;;;;;22.07;20.77;;;;;;;;;;5071824;28;20999;-76
2023/06/28 03:40:42;;;;;;;21.80;20.40;;;;;;;;;;5071822;28;20857;-76
2023/06/28 03:43:09;;;;;;;21.80;20.50;;;;;;;;;;5071993;28;20823;-76
2023/06/28 03:45:36;;;;;;;22.23;20.93;;;;;;;;;;5071661;28;20521;-75
2023/06/28 03:48:03;;;;;;;22.37;20.87;;;;;;;;;;5073004;28;20429;-75
2023/06/28 03:50:30;;;;;;;21.30;20.00;;;;;;;;;;5071783;28;20466;-76
2023/06/28 03:52:57;;;;;;;21.43;20.17;;;;;;;;;;5072859;28;20449;-76
2023/06/28 03:55:24;;;;;;;21.10;19.80;;;;;;;;;;5072826;28;20443;-76
2023/06/28 03:57:53;;;;;;;21.53;20.20;;;;;;;;;;5071978;28;20456;-75
2023/06/28 04:00:21;;;;;;;21.43;20.13;;;;;;;;;;5073314;28;20440;-75
2023/06/28 04:02:48;;;;;;;21.83;20.23;;;;;;;;;;5072940;28;20458;-76
2023/06/28 04:05:15;;;;;;;21.90;20.70;;;;;;;;;;5071872;28;20934;-75
2023/06/28 04:07:42;;;;;;;21.43;19.80;;;;;;;;;;5071619;28;20445;-75
2023/06/28 04:10:10;;;;;;;21.20;19.90;;;;;;;;;;5071466;28;20530;-75
2023/06/28 04:12:37;;;;;;;22.33;20.87;;;;;;;;;;5072390;28;20410;-75
2023/06/28 04:15:07;;;;;;;21.50;20.10;;;;;;;;;;5073103;28;20910;-76
2023/06/28 04:17:34;;;;;;;21.33;19.70;;;;;;;;;;5071615;28;20463;-76
2023/06/28 04:20:02;;;;;;;21.70;20.50;;;;;;;;;;5071914;28;20948;-75
2023/06/28 04:22:30;;;;;;;20.03;18.93;;;;;;;;;;5072176;28;20943;-77
2023/06/28 04:24:57;;;;;;;22.43;20.83;;;;;;;;;;5072156;28;20552;-77
2023/06/28 04:27:23;;;;;;;21.70;20.00;;;;;;;;;;5071721;28;20457;-75
2023/06/28 04:29:51;;;;;;;23.63;21.83;;;;;;;;;;5071904;28;20903;-76
2023/06/28 04:32:23;;;;;;;22.57;21.00;;;;;;;;;;5071798;28;20479;-76
2023/06/28 04:34:52;;;;;;;22.60;20.93;;;;;;;;;;5072252;28;20423;-76
2023/06/28 04:37:19;;;;;;;22.50;21.10;;;;;;;;;;5071235;28;20448;-76
2023/06/28 04:39:46;;;;;;;22.53;21.13;;;;;;;;;;5071795;28;20419;-76
2023/06/28 04:42:15;;;;;;;21.73;20.33;;;;;;;;;;5071112;28;20519;-76
2023/06/28 04:44:43;;;;;;;23.20;21.77;;;;;;;;;;5071377;28;20489;-76
2023/06/28 04:47:15;;;;;;;22.77;21.37;;;;;;;;;;5070331;28;20899;-75
2023/06/28 04:49:44;;;;;;;22.67;21.30;;;;;;;;;;5071197;28;20867;-76
2023/06/28 04:52:12;;;;;;;22.10;20.80;;;;;;;;;;5073906;28;20864;-76
2023/06/28 04:54:39;;;;;;;22.47;20.97;;;;;;;;;;5074073;28;20867;-77
2023/06/28 04:57:07;;;;;;;23.47;21.97;;;;;;;;;;5072427;28;20508;-75
2023/06/28 04:59:34;;;;;;;23.03;21.20;;;;;;;;;;5072974;28;20488;-75
2023/06/28 05:02:03;;;;;;;22.57;20.97;;;;;;;;;;5087591;28;20471;-75
2023/06/28 05:04:32;;;;;;;23.33;21.93;;;;;;;;;;5103516;28;20457;-75
2023/06/28 05:07:01;;;;;;;23.23;21.77;;;;;;;;;;5072294;28;20507;-77
2023/06/28 05:09:28;;;;;;;22.83;21.33;;;;;;;;;;5072073;28;20451;-76
2023/06/28 05:11:55;;;;;;;24.43;22.77;;;;;;;;;;5089762;28;20479;-75
2023/06/28 05:14:22;;;;;;;24.17;22.50;;;;;;;;;;5093410;28;20933;-75
2023/06/28 05:16:49;;;;;;;25.63;23.93;;;;;;;;;;5093982;28;20451;-75
2023/06/28 05:19:16;;;;;;;23.60;21.97;;;;;;;;;;5093657;28;20439;-76
2023/06/28 05:21:43;;;;;;;23.67;21.97;;;;;;;;;;5094037;28;20511;-75
2023/06/28 05:24:12;;;;;;;23.70;22.00;;;;;;;;;;5094857;28;20923;-76
2023/06/28 05:26:39;;;;;;;23.97;22.07;;;;;;;;;;5093986;28;20843;-75
2023/06/28 05:29:06;;;;;;;23.93;22.33;;;;;;;;;;5096015;28;20511;-76
2023/06/28 05:31:33;;;;;;;22.67;20.97;;;;;;;;;;5097831;28;20507;-75
2023/06/28 05:34:00;;;;;;;22.83;21.53;;;;;;;;;;5095711;28;20932;-76
2023/06/28 05:36:27;;;;;;;24.10;22.50;;;;;;;;;;5095286;28;20437;-76
2023/06/28 05:38:55;;;;;;;23.10;21.70;;;;;;;;;;5096677;28;21054;-75
2023/06/28 05:41:24;;;;;;;22.63;21.13;;;;;;;;;;5096344;28;20482;-75
2023/06/28 05:43:51;;;;;;;25.20;23.00;;;;;;;;;;5096725;28;20879;-75
2023/06/28 05:46:18;;;;;;;22.90;21.63;;;;;;;;;;5095824;28;20448;-75
2023/06/28 05:48:46;;;;;;;24.23;22.83;;;;;;;;;;5095919;28;20547;-76
2023/06/28 05:51:14;;;;;;;24.87;23.10;;;;;;;;;;5095989;28;20473;-77
2023/06/28 05:53:41;;;;;;;24.10;22.60;;;;;;;;;;5096503;28;20555;-82
2023/06/28 05:56:08;;;;;;;23.37;21.87;;;;;;;;;;5096296;28;21352;-80
2023/06/28 05:58:37;;;;;;;23.80;22.30;;;;;;;;;;5096848;28;20489;-80
2023/06/28 06:01:04;;;;;;;22.10;20.80;;;;;;;;;;5096815;28;20455;-76
2023/06/28 06:03:31;;;;;;;22.63;21.23;;;;;;;;;;5099072;28;20422;-79
2023/06/28 06:05:58;;;;;;;24.20;22.27;;;;;;;;;;5098897;28;20461;-75
2023/06/28 06:08:25;;;;;;;22.73;21.43;;;;;;;;;;5102995;28;20419;-74
2023/06/28 06:10:52;;;;;;;23.33;21.63;;;;;;;;;;5096075;28;20460;-75
2023/06/28 06:13:19;;;;;;;23.47;21.77;;;;;;;;;;5094985;28;20428;-75
2023/06/28 06:15:47;;;;;;;24.07;21.90;;;;;;;;;;5093270;28;20471;-74
2023/06/28 06:18:14;;;;;;;24.27;22.27;;;;;;;;;;5094243;28;20504;-74
2023/06/28 06:20:41;;;;;;;23.13;21.73;;;;;;;;;;5093911;28;20428;-75
2023/06/28 06:23:08;;;;;;;23.37;21.97;;;;;;;;;;5093362;28;20484;-75
2023/06/28 06:25:36;;;;;;;24.87;23.07;;;;;;;;;;5093041;28;20427;-75
2023/06/28 06:28:03;;;;;;;25.03;23.03;;;;;;;;;;5094045;28;20426;-75
2023/06/28 06:30:30;;;;;;;23.77;22.00;;;;;;;;;;5093375;28;20459;-75
2023/06/28 06:32:59;;;;;;;24.20;22.00;;;;;;;;;;5093727;28;20933;-76
2023/06/28 06:35:27;;;;;;;25.53;23.57;;;;;;;;;;5093906;28;20455;-74
2023/06/28 06:37:54;;;;;;;25.37;23.50;;;;;;;;;;5093194;28;20575;-75
2023/06/28 06:40:21;;;;;;;25.23;23.20;;;;;;;;;;5093074;28;20443;-75
2023/06/28 06:42:48;;;;;;;24.97;23.27;;;;;;;;;;5094339;28;20457;-75
2023/06/28 06:45:17;;;;;;;25.33;22.90;;;;;;;;;;5093253;28;20975;-75
2023/06/28 06:47:44;;;;;;;24.00;22.37;;;;;;;;;;5093228;28;20544;-76
2023/06/28 06:50:14;;;;;;;25.47;23.20;;;;;;;;;;5092795;28;20527;-74
2023/06/28 06:52:41;;;;;;;24.80;23.00;;;;;;;;;;5093881;28;20456;-75
2023/06/28 06:55:08;;;;;;;25.23;23.37;;;;;;;;;;5093649;28;20526;-75
2023/06/28 06:57:35;;;;;;;24.90;23.20;;;;;;;;;;5093313;28;20481;-76
2023/06/28 07:00:03;;;;;;;24.70;22.90;;;;;;;;;;5094944;28;20439;-75
2023/06/28 07:02:30;;;;;;;24.87;23.00;;;;;;;;;;5093368;28;20453;-75
2023/06/28 07:04:57;;;;;;;24.23;22.63;;;;;;;;;;5093768;28;20452;-74
2023/06/28 07:07:25;;;;;;;24.30;22.77;;;;;;;;;;5092925;28;20423;-75
2023/06/28 07:09:52;;;;;;;25.37;23.47;;;;;;;;;;5093077;28;20514;-75
2023/06/28 07:12:19;;;;;;;25.33;23.20;;;;;;;;;;5092756;28;20415;-75
2023/06/28 07:14:47;;;;;;;25.33;23.63;;;;;;;;;;5092841;28;20494;-74
2023/06/28 07:17:14;;;;;;;24.97;23.17;;;;;;;;;;5091535;28;20431;-74
2023/06/28 07:19:41;;;;;;;24.90;23.03;;;;;;;;;;5092857;28;20486;-73
2023/06/28 07:22:08;;;;;;;25.50;23.70;;;;;;;;;;5092459;28;20436;-74
2023/06/28 07:24:36;;;;;;;25.17;23.13;;;;;;;;;;5092695;28;20839;-75
2023/06/28 07:27:03;;;;;;;24.90;22.83;;;;;;;;;;5091041;28;20781;-75
2023/06/28 07:29:30;;;;;;;26.30;24.30;;;;;;;;;;5092101;28;20497;-74
2023/06/28 07:31:57;;;;;;;25.67;23.97;;;;;;;;;;5091046;28;20443;-75
2023/06/28 07:34:24;;;;;;;24.63;22.83;;;;;;;;;;5091892;28;20494;-73
2023/06/28 07:36:51;;;;;;;25.23;23.33;;;;;;;;;;5091985;28;20424;-74
2023/06/28 07:39:18;;;;;;;25.17;23.47;;;;;;;;;;5092773;28;20540;-75
2023/06/28 07:41:47;;;;;;;24.57;22.90;;;;;;;;;;5091457;28;20484;-74
2023/06/28 07:44:14;;;;;;;25.63;23.73;;;;;;;;;;5091969;28;20445;-75
2023/06/28 07:46:41;;;;;;;24.00;22.50;;;;;;;;;;5091205;28;20449;-74
2023/06/28 07:49:08;;;;;;;26.10;23.93;;;;;;;;;;5092298;28;20494;-74
2023/06/28 07:51:35;;;;;;;25.97;24.03;;;;;;;;;;5092343;28;20471;-75
2023/06/28 07:54:02;;;;;;;25.53;23.77;;;;;;;;;;5092233;28;20452;-73
2023/06/28 07:56:29;;;;;;;24.80;22.67;;;;;;;;;;5092685;28;20419;-74
2023/06/28 07:59:01;;;;;;;23.00;21.40;;;;;;;;;;5092947;28;20462;-73
2023/06/28 08:01:28;;;;;;;24.90;23.30;;;;;;;;;;5093201;28;20485;-73
2023/06/28 08:03:55;;;;;;;26.10;24.17;;;;;;;;;;5094073;28;20930;-74
2023/06/28 08:06:22;;;;;;;25.70;23.27;;;;;;;;;;5092572;28;20427;-74
2023/06/28 08:08:50;;;;;;;23.97;22.17;;;;;;;;;;5093716;28;20502;-77
2023/06/28 08:11:17;;;;;;;22.70;21.27;;;;;;;;;;5094989;28;20576;-81
2023/06/28 08:13:45;;;;;;;23.00;21.37;;;;;;;;;;5094496;28;20830;-77
2023/06/28 08:16:14;;;;;;;24.70;22.73;;;;;;;;;;5093416;28;21251;-77
2023/06/28 08:18:41;;;;;;;23.60;22.03;;;;;;;;;;5094426;28;20529;-78
2023/06/28 08:21:08;;;;;;;23.80;22.10;;;;;;;;;;5093523;28;20510;-81
2023/06/28 08:23:36;;;;;;;24.27;22.50;;;;;;;;;;5093560;28;20427;-76
2023/06/28 08:26:03;;;;;;;25.20;23.50;;;;;;;;;;5092600;28;20848;-76
2023/06/28 08:28:30;;;;;;;25.47;23.27;;;;;;;;;;5094082;28;20424;-77
2023/06/28 08:30:57;;;;;;;25.27;23.50;;;;;;;;;;5092970;28;20538;-76
2023/06/28 08:33:25;;;;;;;26.87;24.80;;;;;;;;;;5088342;28;20502;-76
2023/06/28 08:35:52;;;;;;;27.60;25.50;;;;;;;;;;5092332;28;20422;-76
2023/06/28 08:38:19;;;;;;;26.43;24.30;;;;;;;;;;5082139;28;20460;-77
2023/06/28 08:40:48;;;;;;;26.10;24.10;;;;;;;;;;5092216;28;20435;-75
2023/06/28 08:43:17;;;;;;;25.67;24.00;;;;;;;;;;5096142;28;20423;-76
2023/06/28 08:45:45;;;;;;;26.13;24.10;;;;;;;;;;5095331;28;20452;-77
2023/06/28 08:48:13;;;;;;;26.73;24.63;;;;;;;;;;5096521;28;20478;-77
2023/06/28 08:50:43;;;;;;;26.97;24.47;;;;;;;;;;5095094;28;20473;-78
2023/06/28 08:53:13;;;;;;;25.20;23.47;;;;;;;;;;5093241;28;20455;-76
2023/06/28 08:55:40;;;;;;;26.30;24.60;;;;;;;;;;5096207;28;20994;-77
2023/06/28 08:58:08;;;;;;;26.10;24.17;;;;;;;;;;5096017;28;20488;-77
2023/06/28 09:00:35;;;;;;;25.83;24.03;;;;;;;;;;5095591;28;20459;-76
2023/06/28 09:03:02;;;;;;;25.83;24.03;;;;;;;;;;5098405;28;20472;-76
2023/06/28 09:05:30;;;;;;;26.03;24.03;;;;;;;;;;5099796;28;20404;-76
2023/06/28 09:07:58;;;;;;;26.17;24.20;;;;;;;;;;5099011;28;20925;-76
2023/06/28 09:10:25;;;;;;;25.87;24.10;;;;;;;;;;5098378;28;20459;-76
2023/06/28 09:12:52;;;;;;;26.27;24.60;;;;;;;;;;5099741;28;20427;-76
2023/06/28 09:15:21;;;;;;;25.37;23.73;;;;;;;;;;5099519;28;20411;-76
2023/06/28 09:17:48;;;;;;;25.97;23.70;;;;;;;;;;5095798;28;20436;-76
2023/06/28 09:20:18;;;;;;;26.33;24.33;;;;;;;;;;5095670;28;20533;-76
2023/06/28 09:22:55;;;;;;;26.77;24.97;;;;;;;;;;5099653;28;20448;-78
2023/06/28 09:25:24;;;;;;;26.70;24.40;;;;;;;;;;5102489;28;20450;-77
2023/06/28 09:27:51;;;;;;;25.43;23.60;;;;;;;;;;5099011;28;20420;-76
2023/06/28 09:30:18;;;;;;;24.17;22.33;;;;;;;;;;5096680;28;20439;-77
2023/06/28 09:32:50;;;;;;;25.03;23.40;;;;;;;;;;5096804;28;20471;-76
2023/06/28 09:35:17;;;;;;;25.60;23.80;;;;;;;;;;5096328;28;20809;-76
2023/06/28 09:37:44;;;;;;;25.87;24.10;;;;;;;;;;5096532;28;20482;-76
2023/06/28 09:40:15;;;;;;;23.70;22.10;;;;;;;;;;5097856;28;20474;-76
2023/06/28 09:42:47;;;;;;;26.20;24.20;;;;;;;;;;5096970;28;20828;-77
2023/06/28 09:45:27;;;;;;;24.37;22.67;;;;;;;;;;5095977;28;20747;-76
2023/06/28 09:47:58;;;;;;;25.20;23.20;;;;;;;;;;5095906;28;20483;-76
2023/06/28 09:50:38;;;;;;;24.60;22.90;;;;;;;;;;5096257;28;20428;-76
2023/06/28 09:53:08;;;;;;;23.57;21.87;;;;;;;;;;5095190;28;20949;-76
2023/06/28 09:55:35;;;;;;;24.53;22.67;;;;;;;;;;5094405;28;20426;-76
2023/06/28 09:58:03;;;;;;;23.73;22.13;;;;;;;;;;5094651;28;20515;-76
2023/06/28 10:00:31;;;;;;;23.20;21.70;;;;;;;;;;5093612;28;21017;-77
2023/06/28 10:02:59;;;;;;;24.73;22.67;;;;;;;;;;5094738;28;20543;-75
2023/06/28 10:05:27;;;;;;;23.60;21.80;;;;;;;;;;5094635;28;20449;-76
2023/06/28 10:07:54;;;;;;;24.33;22.60;;;;;;;;;;5094090;28;20453;-75
2023/06/28 10:10:21;;;;;;;25.10;23.10;;;;;;;;;;5093810;28;20494;-76
2023/06/28 10:12:49;;;;;;;24.57;22.53;;;;;;;;;;5094587;28;20866;-76
2023/06/28 10:15:22;;;;;;;25.20;22.93;;;;;;;;;;5092950;28;20435;-78
2023/06/28 10:17:50;;;;;;;25.37;23.33;;;;;;;;;;5092207;28;21100;-75
2023/06/28 10:20:18;;;;;;;25.60;23.50;;;;;;;;;;5094025;28;20482;-75
2023/06/28 10:22:45;;;;;;;25.73;23.83;;;;;;;;;;5094316;28;20480;-75
2023/06/28 10:25:12;;;;;;;24.33;22.60;;;;;;;;;;5095173;28;20449;-77
2023/06/28 10:27:40;;;;;;;26.30;24.50;;;;;;;;;;5093213;28;20427;-79
2023/06/28 10:30:08;;;;;;;25.07;23.37;;;;;;;;;;5093202;28;20932;-76
2023/06/28 10:32:36;;;;;;;25.10;23.30;;;;;;;;;;5093966;28;20831;-80
2023/06/28 10:35:04;;;;;;;26.67;24.63;;;;;;;;;;5093862;28;21341;-76
2023/06/28 10:37:31;;;;;;;26.47;24.47;;;;;;;;;;5093319;28;20419;-75
2023/06/28 10:39:58;;;;;;;27.83;25.70;;;;;;;;;;5092264;28;20805;-77
2023/06/28 10:42:25;;;;;;;26.10;24.30;;;;;;;;;;5092020;28;20419;-76
2023/06/28 10:44:52;;;;;;;26.87;24.87;;;;;;;;;;5092168;28;20473;-77
2023/06/28 10:47:19;;;;;;;27.60;25.70;;;;;;;;;;5092044;28;20469;-76
2023/06/28 10:50:01;;;;;;;26.30;24.20;;;;;;;;;;5093009;28;20969;-76
2023/06/28 10:52:30;;;;;;;25.80;24.10;;;;;;;;;;5092654;28;20477;-76
2023/06/28 10:54:57;;;;;;;27.40;25.30;;;;;;;;;;5094473;28;20821;-76
2023/06/28 10:57:34;;;;;;;24.80;23.30;;;;;;;;;;5104466;28;20440;-78
2023/06/28 11:00:03;;;;;;;27.00;24.93;;;;;;;;;;5095450;28;20504;-77
2023/06/28 11:02:45;;;;;;;26.40;24.60;;;;;;;;;;5093157;28;20459;-76
2023/06/28 11:05:12;;;;;;;26.00;24.20;;;;;;;;;;5092667;28;20452;-76
2023/06/28 11:07:41;;;;;;;26.10;24.40;;;;;;;;;;5092388;28;20473;-76
2023/06/28 11:10:11;;;;;;;26.37;24.73;;;;;;;;;;5092444;28;20464;-76
2023/06/28 11:12:39;;;;;;;26.73;24.63;;;;;;;;;;5092677;28;20481;-76
2023/06/28 11:15:09;;;;;;;25.70;24.00;;;;;;;;;;5092736;28;20420;-76
2023/06/28 11:17:36;;;;;;;25.20;23.50;;;;;;;;;;5091310;28;20889;-76
2023/06/28 11:20:07;;;;;;;26.10;24.10;;;;;;;;;;5092530;28;20455;-76
2023/06/28 11:22:48;;;;;;;26.40;24.70;;;;;;;;;;5092015;28;20554;-76
2023/06/28 11:25:16;;;;;;;26.83;25.03;;;;;;;;;;5092724;28;20411;-75
2023/06/28 11:27:43;;;;;;;28.37;26.13;;;;;;;;;;5090976;28;20514;-75
2023/06/28 11:30:10;;;;;;;27.20;25.27;;;;;;;;;;5091333;28;20468;-75
2023/06/28 11:32:37;;;;;;;27.27;25.33;;;;;;;;;;5092574;28;21036;-75
2023/06/28 11:35:05;;;;;;;27.30;25.40;;;;;;;;;;5092809;28;20449;-75
2023/06/28 11:37:32;;;;;;;28.20;26.30;;;;;;;;;;5093516;28;20488;-75
2023/06/28 11:40:01;;;;;;;28.13;26.03;;;;;;;;;;5096157;28;20488;-74
2023/06/28 11:42:28;;;;;;;28.07;26.07;;;;;;;;;;5106262;28;20960;-75
2023/06/28 11:44:55;;;;;;;27.67;25.47;;;;;;;;;;5094374;28;20453;-75
2023/06/28 11:47:22;;;;;;;27.90;25.97;;;;;;;;;;5091675;28;20448;-75
2023/06/28 11:49:50;;;;;;;26.90;25.03;;;;;;;;;;5093260;28;20468;-77
2023/06/28 11:52:17;;;;;;;26.50;24.43;;;;;;;;;;5094290;28;20427;-75
2023/06/28 11:54:44;;;;;;;26.63;24.73;;;;;;;;;;5094397;28;20476;-75
2023/06/28 11:57:12;;;;;;;28.73;26.73;;;;;;;;;;5092473;28;20419;-76
2023/06/28 11:59:44;;;;;;;27.13;25.33;;;;;;;;;;5093462;28;20484;-75
2023/06/28 12:02:11;;;;;;;26.47;24.73;;;;;;;;;;5093001;28;20461;-75
2023/06/28 12:04:39;;;;;;;26.07;24.23;;;;;;;;;;5093488;28;20436;-75
2023/06/28 12:07:06;;;;;;;26.23;24.37;;;;;;;;;;5092813;28;20424;-76
2023/06/28 12:09:34;;;;;;;27.53;25.77;;;;;;;;;;5093553;28;20423;-75
2023/06/28 12:12:03;;;;;;;30.13;28.07;;;;;;;;;;5091552;28;20461;-75
2023/06/28 12:14:32;;;;;;;31.30;28.97;;;;;;;;;;5093362;28;20419;-74
2023/06/28 12:16:59;;;;;;;30.57;28.47;;;;;;;;;;5093181;28;20932;-75
2023/06/28 12:19:33;;;;;;;30.40;28.17;;;;;;;;;;5093354;28;20459;-76
2023/06/28 12:22:02;;;;;;;30.90;28.87;;;;;;;;;;5092561;28;20460;-75
2023/06/28 12:24:29;;;;;;;30.37;28.37;;;;;;;;;;5093524;28;20445;-75
2023/06/28 12:26:58;;;;;;;33.10;30.70;;;;;;;;;;5095803;28;20427;-76
2023/06/28 12:29:25;;;;;;;33.00;30.80;;;;;;;;;;5098018;28;20500;-76
2023/06/28 12:31:54;;;;;;;32.10;30.10;;;;;;;;;;5096977;28;20943;-76
2023/06/28 12:34:23;;;;;;;36.63;33.83;;;;;;;;;;5097604;28;20431;-76
2023/06/28 12:36:52;;;;;;;35.80;32.77;;;;;;;;;;5096889;28;20518;-74
2023/06/28 12:39:22;;;;;;;36.23;33.73;;;;;;;;;;5096118;28;20455;-76
2023/06/28 12:42:01;;;;;;;34.20;31.90;;;;;;;;;;5096003;28;20484;-76
2023/06/28 12:44:28;;;;;;;36.20;33.70;;;;;;;;;;5098347;28;20421;-76
2023/06/28 12:46:57;;;;;;;34.90;32.47;;;;;;;;;;5098125;28;20429;-75
2023/06/28 12:49:25;;;;;;;36.30;33.70;;;;;;;;;;5099003;28;20804;-76
2023/06/28 12:51:52;;;;;;;37.70;35.30;;;;;;;;;;5097549;28;20447;-76
2023/06/28 12:54:19;;;;;;;36.30;33.80;;;;;;;;;;5097859;28;20923;-76
2023/06/28 12:56:46;;;;;;;36.37;33.97;;;;;;;;;;5097892;28;20456;-76
2023/06/28 12:59:13;;;;;;;36.13;33.73;;;;;;;;;;5097277;28;20453;-77
2023/06/28 13:01:40;;;;;;;37.30;34.60;;;;;;;;;;5095586;28;20476;-76
2023/06/28 13:04:08;;;;;;;39.20;36.50;;;;;;;;;;5096338;28;20423;-76
2023/06/28 13:06:35;;;;;;;39.13;36.30;;;;;;;;;;5095603;28;20468;-76
2023/06/28 13:09:02;;;;;;;38.20;35.60;;;;;;;;;;5095780;28;20509;-77
2023/06/28 13:11:31;;;;;;;37.87;35.23;;;;;;;;;;5095032;28;20844;-75
2023/06/28 13:13:58;;;;;;;37.27;34.30;;;;;;;;;;5095027;28;20522;-76
2023/06/28 13:16:25;;;;;;;37.53;34.70;;;;;;;;;;5095769;28;20441;-75
2023/06/28 13:18:52;;;;;;;35.97;33.60;;;;;;;;;;5099079;28;20419;-76
2023/06/28 13:21:20;;;;;;;36.23;33.50;;;;;;;;;;5100031;28;20488;-76
2023/06/28 13:23:47;;;;;;;34.73;32.30;;;;;;;;;;5100099;28;20424;-76
2023/06/28 13:26:14;;;;;;;31.63;29.23;;;;;;;;;;5099625;28;20424;-76
2023/06/28 13:28:42;;;;;;;31.10;28.80;;;;;;;;;;5101206;28;20937;-76
2023/06/28 13:31:09;;;;;;;39.50;35.87;;;;;;;;;;5100440;28;20459;-76
2023/06/28 13:33:36;;;;;;;31.20;28.83;;;;;;;;;;5100330;28;20985;-76
2023/06/28 13:36:03;;;;;;;27.80;26.03;;;;;;;;;;5099153;28;20767;-76
2023/06/28 13:38:31;;;;;;;29.53;27.37;;;;;;;;;;5097370;28;20925;-77
2023/06/28 13:40:58;;;;;;;42.53;38.83;;;;;;;;;;5095211;28;20540;-77
2023/06/28 13:43:25;;;;;;;30.17;28.07;;;;;;;;;;5095145;28;20450;-77
2023/06/28 13:45:53;;;;;;;28.20;25.60;;;;;;;;;;5099477;28;20434;-77
2023/06/28 13:48:20;;;;;;;26.30;24.50;;;;;;;;;;5098704;28;20456;-77
2023/06/28 13:50:47;;;;;;;26.00;24.10;;;;;;;;;;5097814;28;20440;-76
2023/06/28 13:53:14;;;;;;;25.40;23.70;;;;;;;;;;5098945;28;20482;-78
2023/06/28 13:55:42;;;;;;;25.80;24.03;;;;;;;;;;5096785;28;20456;-77
2023/06/28 13:58:09;;;;;;;26.13;24.13;;;;;;;;;;5098867;28;20453;-76
2023/06/28 14:00:36;;;;;;;26.03;23.63;;;;;;;;;;5097826;28;20521;-76
2023/06/28 14:03:03;;;;;;;25.80;24.10;;;;;;;;;;5099825;28;20872;-76
2023/06/28 14:05:30;;;;;;;27.73;25.73;;;;;;;;;;5099393;28;20423;-76
2023/06/28 14:07:57;;;;;;;26.50;24.50;;;;;;;;;;5096878;28;20825;-77
2023/06/28 14:10:24;;;;;;;39.70;36.43;;;;;;;;;;5095249;28;20555;-76
2023/06/28 14:12:53;;;;;;;30.57;28.20;;;;;;;;;;5095773;28;20767;-76
2023/06/28 14:15:20;;;;;;;27.90;25.80;;;;;;;;;;5095055;28;20444;-76
2023/06/28 14:17:47;;;;;;;25.63;23.73;;;;;;;;;;5094653;28;20899;-75
2023/06/28 14:20:15;;;;;;;31.50;29.20;;;;;;;;;;5095235;28;20493;-75